sensor_id;sensor_type;location;lat;lon;timestamp;temperature;humidity
39099;DHT22;24844;52.380;7.018;2023-04-30T00:00:44;8.30;99.90
39099;DHT22;24844;52.380;7.018;2023-04-30T00:03:10;8.30;99.90
39099;DHT22;24844;52.380;7.018;2023-04-30T00:05:35;8.30;99.90
39099;DHT22;24844;52.380;7.018;2023-04-30T00:08:03;8.30;99.90
39099;DHT22;24844;52.380;7.018;2023-04-30T00:10:29;8.20;99.90
39099;DHT22;24844;52.380;7.018;2023-04-30T00:12:55;8.20;99.90
39099;DHT22;24844;52.380;7.018;2023-04-30T00:15:21;8.10;99.90
39099;DHT22;24844;52.380;7.018;2023-04-30T00:17:47;8.10;99.90
39099;DHT22;24844;52.380;7.018;2023-04-30T00:20:12;8.00;99.90
39099;DHT22;24844;52.380;7.018;2023-04-30T00:22:38;8.00;99.90
39099;DHT22;24844;52.380;7.018;2023-04-30T00:25:04;8.00;99.90
39099;DHT22;24844;52.380;7.018;2023-04-30T00:27:29;8.00;99.90
39099;DHT22;24844;52.380;7.018;2023-04-30T00:29:56;7.90;99.90
39099;DHT22;24844;52.380;7.018;2023-04-30T00:32:22;7.80;99.90
39099;DHT22;24844;52.380;7.018;2023-04-30T00:34:48;7.80;99.90
39099;DHT22;24844;52.380;7.018;2023-04-30T00:37:13;7.70;99.90
39099;DHT22;24844;52.380;7.018;2023-04-30T00:39:39;7.70;99.90
39099;DHT22;24844;52.380;7.018;2023-04-30T00:42:04;7.60;99.90
39099;DHT22;24844;52.380;7.018;2023-04-30T00:44:30;7.60;99.90
39099;DHT22;24844;52.380;7.018;2023-04-30T00:46:56;7.60;99.90
39099;DHT22;24844;52.380;7.018;2023-04-30T00:49:21;7.50;99.90
39099;DHT22;24844;52.380;7.018;2023-04-30T00:51:47;7.50;99.90
39099;DHT22;24844;52.380;7.018;2023-04-30T00:54:14;7.50;99.90
39099;DHT22;24844;52.380;7.018;2023-04-30T00:56:40;7.50;99.90
39099;DHT22;24844;52.380;7.018;2023-04-30T00:59:06;7.40;99.90
39099;DHT22;24844;52.380;7.018;2023-04-30T01:01:32;7.20;99.90
39099;DHT22;24844;52.380;7.018;2023-04-30T01:03:57;7.20;99.90
39099;DHT22;24844;52.380;7.018;2023-04-30T01:06:24;7.10;99.90
39099;DHT22;24844;52.380;7.018;2023-04-30T01:08:51;7.10;99.90
39099;DHT22;24844;52.380;7.018;2023-04-30T01:14:19;7.00;99.90
39099;DHT22;24844;52.380;7.018;2023-04-30T01:17:36;7.10;99.90
39099;DHT22;24844;52.380;7.018;2023-04-30T01:19:44;7.00;99.90
39099;DHT22;24844;52.380;7.018;2023-04-30T01:25:20;6.90;99.90
39099;DHT22;24844;52.380;7.018;2023-04-30T01:30:30;6.90;99.90
39099;DHT22;24844;52.380;7.018;2023-04-30T01:32:56;6.80;99.90
39099;DHT22;24844;52.380;7.018;2023-04-30T01:35:48;6.80;99.90
39099;DHT22;24844;52.380;7.018;2023-04-30T01:41:40;6.60;99.90
39099;DHT22;24844;52.380;7.018;2023-04-30T01:44:28;6.60;99.90
39099;DHT22;24844;52.380;7.018;2023-04-30T01:47:05;6.50;99.90
39099;DHT22;24844;52.380;7.018;2023-04-30T01:49:49;6.50;99.90
39099;DHT22;24844;52.380;7.018;2023-04-30T01:55:04;6.30;99.90
39099;DHT22;24844;52.380;7.018;2023-04-30T01:57:37;6.30;99.90
39099;DHT22;24844;52.380;7.018;2023-04-30T02:00:04;6.30;99.90
39099;DHT22;24844;52.380;7.018;2023-04-30T02:02:30;6.40;99.90
39099;DHT22;24844;52.380;7.018;2023-04-30T02:04:56;6.40;99.90
39099;DHT22;24844;52.380;7.018;2023-04-30T02:07:35;6.40;99.90
39099;DHT22;24844;52.380;7.018;2023-04-30T02:10:03;6.40;99.90
39099;DHT22;24844;52.380;7.018;2023-04-30T02:12:28;6.40;99.90
39099;DHT22;24844;52.380;7.018;2023-04-30T02:14:54;6.40;99.90
39099;DHT22;24844;52.380;7.018;2023-04-30T02:17:20;6.50;99.90
39099;DHT22;24844;52.380;7.018;2023-04-30T02:19:45;6.40;99.90
39099;DHT22;24844;52.380;7.018;2023-04-30T02:22:11;6.40;99.90
39099;DHT22;24844;52.380;7.018;2023-04-30T02:24:37;6.40;99.90
39099;DHT22;24844;52.380;7.018;2023-04-30T02:27:02;6.40;99.90
39099;DHT22;24844;52.380;7.018;2023-04-30T02:29:28;6.40;99.90
39099;DHT22;24844;52.380;7.018;2023-04-30T02:31:57;6.40;99.90
39099;DHT22;24844;52.380;7.018;2023-04-30T02:34:23;6.30;99.90
39099;DHT22;24844;52.380;7.018;2023-04-30T02:36:48;6.30;99.90
39099;DHT22;24844;52.380;7.018;2023-04-30T02:39:14;6.30;99.90
39099;DHT22;24844;52.380;7.018;2023-04-30T02:41:40;6.30;99.90
39099;DHT22;24844;52.380;7.018;2023-04-30T02:44:05;6.30;99.90
39099;DHT22;24844;52.380;7.018;2023-04-30T02:46:31;6.30;99.90
39099;DHT22;24844;52.380;7.018;2023-04-30T02:48:56;6.30;99.90
39099;DHT22;24844;52.380;7.018;2023-04-30T02:51:22;6.30;99.90
39099;DHT22;24844;52.380;7.018;2023-04-30T02:53:48;6.20;99.90
39099;DHT22;24844;52.380;7.018;2023-04-30T02:56:14;6.20;99.90
39099;DHT22;24844;52.380;7.018;2023-04-30T02:58:39;6.20;99.90
39099;DHT22;24844;52.380;7.018;2023-04-30T03:01:05;6.10;99.90
39099;DHT22;24844;52.380;7.018;2023-04-30T03:03:31;6.10;99.90
39099;DHT22;24844;52.380;7.018;2023-04-30T03:05:58;6.00;99.90
39099;DHT22;24844;52.380;7.018;2023-04-30T03:08:24;6.00;99.90
39099;DHT22;24844;52.380;7.018;2023-04-30T03:10:50;5.90;99.90
39099;DHT22;24844;52.380;7.018;2023-04-30T03:13:15;6.00;99.90
39099;DHT22;24844;52.380;7.018;2023-04-30T03:15:41;5.90;99.90
39099;DHT22;24844;52.380;7.018;2023-04-30T03:18:06;5.90;99.90
39099;DHT22;24844;52.380;7.018;2023-04-30T03:20:32;5.90;99.90
39099;DHT22;24844;52.380;7.018;2023-04-30T03:22:57;5.80;99.90
39099;DHT22;24844;52.380;7.018;2023-04-30T03:25:23;5.70;99.90
39099;DHT22;24844;52.380;7.018;2023-04-30T03:27:49;5.80;99.90
39099;DHT22;24844;52.380;7.018;2023-04-30T03:30:14;5.80;99.90
39099;DHT22;24844;52.380;7.018;2023-04-30T03:32:40;5.80;99.90
39099;DHT22;24844;52.380;7.018;2023-04-30T03:35:06;5.80;99.90
39099;DHT22;24844;52.380;7.018;2023-04-30T03:37:32;5.70;99.90
39099;DHT22;24844;52.380;7.018;2023-04-30T03:39:58;5.70;99.90
39099;DHT22;24844;52.380;7.018;2023-04-30T03:42:23;5.70;99.90
39099;DHT22;24844;52.380;7.018;2023-04-30T03:44:49;5.60;99.90
39099;DHT22;24844;52.380;7.018;2023-04-30T03:47:14;5.50;99.90
39099;DHT22;24844;52.380;7.018;2023-04-30T03:49:40;5.60;99.90
39099;DHT22;24844;52.380;7.018;2023-04-30T03:52:06;5.60;99.90
39099;DHT22;24844;52.380;7.018;2023-04-30T03:54:31;5.70;99.90
39099;DHT22;24844;52.380;7.018;2023-04-30T03:56:58;5.70;99.90
39099;DHT22;24844;52.380;7.018;2023-04-30T03:59:24;5.60;99.90
39099;DHT22;24844;52.380;7.018;2023-04-30T04:01:50;5.60;99.90
39099;DHT22;24844;52.380;7.018;2023-04-30T04:04:16;5.60;99.90
39099;DHT22;24844;52.380;7.018;2023-04-30T04:06:42;5.60;99.90
39099;DHT22;24844;52.380;7.018;2023-04-30T04:09:07;5.80;99.90
39099;DHT22;24844;52.380;7.018;2023-04-30T04:11:33;5.60;99.90
39099;DHT22;24844;52.380;7.018;2023-04-30T04:13:59;5.50;99.90
39099;DHT22;24844;52.380;7.018;2023-04-30T04:16:25;5.60;99.90
39099;DHT22;24844;52.380;7.018;2023-04-30T04:18:51;5.60;99.90
39099;DHT22;24844;52.380;7.018;2023-04-30T04:21:17;5.60;99.90
39099;DHT22;24844;52.380;7.018;2023-04-30T04:23:42;5.60;99.90
39099;DHT22;24844;52.380;7.018;2023-04-30T04:26:08;5.60;99.90
39099;DHT22;24844;52.380;7.018;2023-04-30T04:28:34;5.70;99.90
39099;DHT22;24844;52.380;7.018;2023-04-30T04:31:01;5.70;99.90
39099;DHT22;24844;52.380;7.018;2023-04-30T04:33:27;5.80;99.90
39099;DHT22;24844;52.380;7.018;2023-04-30T04:35:53;5.90;99.90
39099;DHT22;24844;52.380;7.018;2023-04-30T04:38:19;5.70;99.90
39099;DHT22;24844;52.380;7.018;2023-04-30T04:40:52;5.70;99.90
39099;DHT22;24844;52.380;7.018;2023-04-30T04:43:19;5.90;99.90
39099;DHT22;24844;52.380;7.018;2023-04-30T04:45:44;6.00;99.90
39099;DHT22;24844;52.380;7.018;2023-04-30T04:48:11;6.40;99.90
39099;DHT22;24844;52.380;7.018;2023-04-30T04:50:37;6.80;99.90
39099;DHT22;24844;52.380;7.018;2023-04-30T04:53:02;7.30;99.90
39099;DHT22;24844;52.380;7.018;2023-04-30T04:55:28;7.70;99.90
39099;DHT22;24844;52.380;7.018;2023-04-30T04:57:53;8.30;99.90
39099;DHT22;24844;52.380;7.018;2023-04-30T05:00:19;8.50;99.90
39099;DHT22;24844;52.380;7.018;2023-04-30T05:02:46;8.90;99.90
39099;DHT22;24844;52.380;7.018;2023-04-30T05:05:12;9.20;99.90
39099;DHT22;24844;52.380;7.018;2023-04-30T05:07:38;9.50;99.90
39099;DHT22;24844;52.380;7.018;2023-04-30T05:10:04;10.00;99.90
39099;DHT22;24844;52.380;7.018;2023-04-30T05:12:30;10.30;99.90
39099;DHT22;24844;52.380;7.018;2023-04-30T05:14:55;10.80;99.90
39099;DHT22;24844;52.380;7.018;2023-04-30T05:17:21;10.90;99.90
39099;DHT22;24844;52.380;7.018;2023-04-30T05:19:46;11.10;99.90
39099;DHT22;24844;52.380;7.018;2023-04-30T05:22:15;11.20;99.90
39099;DHT22;24844;52.380;7.018;2023-04-30T05:24:40;11.00;99.90
39099;DHT22;24844;52.380;7.018;2023-04-30T05:27:06;10.70;99.90
39099;DHT22;24844;52.380;7.018;2023-04-30T05:29:32;10.50;99.90
39099;DHT22;24844;52.380;7.018;2023-04-30T05:31:58;10.10;99.90
39099;DHT22;24844;52.380;7.018;2023-04-30T05:34:23;9.70;99.90
39099;DHT22;24844;52.380;7.018;2023-04-30T05:36:49;9.70;99.90
39099;DHT22;24844;52.380;7.018;2023-04-30T05:39:15;9.70;99.90
39099;DHT22;24844;52.380;7.018;2023-04-30T05:41:40;9.50;99.90
39099;DHT22;24844;52.380;7.018;2023-04-30T05:44:06;9.40;99.90
39099;DHT22;24844;52.380;7.018;2023-04-30T05:46:31;9.40;99.90
39099;DHT22;24844;52.380;7.018;2023-04-30T05:48:57;9.40;99.90
39099;DHT22;24844;52.380;7.018;2023-04-30T05:51:23;9.40;99.90
39099;DHT22;24844;52.380;7.018;2023-04-30T05:53:48;9.30;99.90
39099;DHT22;24844;52.380;7.018;2023-04-30T05:56:14;9.40;99.90
39099;DHT22;24844;52.380;7.018;2023-04-30T05:58:39;9.30;99.90
39099;DHT22;24844;52.380;7.018;2023-04-30T06:01:05;9.30;99.90
39099;DHT22;24844;52.380;7.018;2023-04-30T06:03:30;9.40;99.90
39099;DHT22;24844;52.380;7.018;2023-04-30T06:05:56;9.20;99.90
39099;DHT22;24844;52.380;7.018;2023-04-30T06:08:22;9.20;99.90
39099;DHT22;24844;52.380;7.018;2023-04-30T06:10:48;9.30;99.90
39099;DHT22;24844;52.380;7.018;2023-04-30T06:13:15;9.20;99.90
39099;DHT22;24844;52.380;7.018;2023-04-30T06:15:40;9.40;99.90
39099;DHT22;24844;52.380;7.018;2023-04-30T06:18:06;9.10;99.90
39099;DHT22;24844;52.380;7.018;2023-04-30T06:20:32;9.30;99.90
39099;DHT22;24844;52.380;7.018;2023-04-30T06:22:57;9.10;99.90
39099;DHT22;24844;52.380;7.018;2023-04-30T06:25:24;9.30;99.90
39099;DHT22;24844;52.380;7.018;2023-04-30T06:27:50;9.60;99.90
39099;DHT22;24844;52.380;7.018;2023-04-30T06:30:18;9.60;99.90
39099;DHT22;24844;52.380;7.018;2023-04-30T06:32:44;9.70;99.90
39099;DHT22;24844;52.380;7.018;2023-04-30T06:35:09;9.80;99.90
39099;DHT22;24844;52.380;7.018;2023-04-30T06:37:35;9.80;99.90
39099;DHT22;24844;52.380;7.018;2023-04-30T06:40:05;10.10;99.90
39099;DHT22;24844;52.380;7.018;2023-04-30T06:42:31;9.80;99.90
39099;DHT22;24844;52.380;7.018;2023-04-30T06:44:59;9.90;99.90
39099;DHT22;24844;52.380;7.018;2023-04-30T06:47:26;10.00;99.90
39099;DHT22;24844;52.380;7.018;2023-04-30T06:49:52;9.80;99.90
39099;DHT22;24844;52.380;7.018;2023-04-30T06:52:18;10.30;99.90
39099;DHT22;24844;52.380;7.018;2023-04-30T06:54:43;10.20;99.90
39099;DHT22;24844;52.380;7.018;2023-04-30T06:57:09;10.20;99.90
39099;DHT22;24844;52.380;7.018;2023-04-30T06:59:34;10.40;99.90
39099;DHT22;24844;52.380;7.018;2023-04-30T07:02:00;10.30;99.90
39099;DHT22;24844;52.380;7.018;2023-04-30T07:04:25;10.20;99.90
39099;DHT22;24844;52.380;7.018;2023-04-30T07:06:52;10.50;99.90
39099;DHT22;24844;52.380;7.018;2023-04-30T07:09:17;10.70;99.90
39099;DHT22;24844;52.380;7.018;2023-04-30T07:11:43;10.30;99.90
39099;DHT22;24844;52.380;7.018;2023-04-30T07:14:09;10.50;99.90
39099;DHT22;24844;52.380;7.018;2023-04-30T07:16:35;11.00;99.90
39099;DHT22;24844;52.380;7.018;2023-04-30T07:19:01;11.00;99.90
39099;DHT22;24844;52.380;7.018;2023-04-30T07:21:26;11.30;99.90
39099;DHT22;24844;52.380;7.018;2023-04-30T07:23:52;11.60;99.90
39099;DHT22;24844;52.380;7.018;2023-04-30T07:26:18;11.70;99.90
39099;DHT22;24844;52.380;7.018;2023-04-30T07:28:46;12.50;99.90
39099;DHT22;24844;52.380;7.018;2023-04-30T07:31:12;12.90;99.90
39099;DHT22;24844;52.380;7.018;2023-04-30T07:33:38;13.50;99.90
39099;DHT22;24844;52.380;7.018;2023-04-30T07:36:04;14.50;99.90
39099;DHT22;24844;52.380;7.018;2023-04-30T07:38:29;15.90;95.90
39099;DHT22;24844;52.380;7.018;2023-04-30T07:40:55;16.60;96.10
39099;DHT22;24844;52.380;7.018;2023-04-30T07:43:21;17.50;84.40
39099;DHT22;24844;52.380;7.018;2023-04-30T07:45:47;17.20;86.60
39099;DHT22;24844;52.380;7.018;2023-04-30T07:48:14;16.40;82.80
39099;DHT22;24844;52.380;7.018;2023-04-30T07:50:40;16.50;80.50
39099;DHT22;24844;52.380;7.018;2023-04-30T07:53:05;16.70;86.60
39099;DHT22;24844;52.380;7.018;2023-04-30T07:55:34;16.80;80.30
39099;DHT22;24844;52.380;7.018;2023-04-30T07:57:59;16.30;81.70
39099;DHT22;24844;52.380;7.018;2023-04-30T08:00:26;15.90;83.70
39099;DHT22;24844;52.380;7.018;2023-04-30T08:02:53;16.00;83.10
39099;DHT22;24844;52.380;7.018;2023-04-30T08:05:19;16.10;85.50
39099;DHT22;24844;52.380;7.018;2023-04-30T08:07:45;15.90;82.30
39099;DHT22;24844;52.380;7.018;2023-04-30T08:10:11;16.60;82.80
39099;DHT22;24844;52.380;7.018;2023-04-30T08:12:36;16.50;80.60
39099;DHT22;24844;52.380;7.018;2023-04-30T08:15:03;15.80;92.80
39099;DHT22;24844;52.380;7.018;2023-04-30T08:17:30;16.20;92.60
39099;DHT22;24844;52.380;7.018;2023-04-30T08:19:55;17.70;90.40
39099;DHT22;24844;52.380;7.018;2023-04-30T08:22:22;17.90;84.20
39099;DHT22;24844;52.380;7.018;2023-04-30T08:24:48;18.60;80.50
39099;DHT22;24844;52.380;7.018;2023-04-30T08:27:13;18.20;74.10
39099;DHT22;24844;52.380;7.018;2023-04-30T08:29:39;18.80;73.60
39099;DHT22;24844;52.380;7.018;2023-04-30T08:32:04;19.60;66.60
39099;DHT22;24844;52.380;7.018;2023-04-30T08:34:31;21.20;65.20
39099;DHT22;24844;52.380;7.018;2023-04-30T08:36:56;21.70;62.70
39099;DHT22;24844;52.380;7.018;2023-04-30T08:39:23;21.30;60.50
39099;DHT22;24844;52.380;7.018;2023-04-30T08:41:55;19.20;62.10
39099;DHT22;24844;52.380;7.018;2023-04-30T08:44:22;18.90;63.30
39099;DHT22;24844;52.380;7.018;2023-04-30T08:46:53;18.30;65.50
39099;DHT22;24844;52.380;7.018;2023-04-30T08:49:22;18.30;63.20
39099;DHT22;24844;52.380;7.018;2023-04-30T08:51:48;20.30;64.20
39099;DHT22;24844;52.380;7.018;2023-04-30T08:54:17;20.70;60.70
39099;DHT22;24844;52.380;7.018;2023-04-30T08:56:44;19.90;58.00
39099;DHT22;24844;52.380;7.018;2023-04-30T08:59:11;19.10;59.20
39099;DHT22;24844;52.380;7.018;2023-04-30T09:01:37;19.70;59.40
39099;DHT22;24844;52.380;7.018;2023-04-30T09:04:03;18.90;60.50
39099;DHT22;24844;52.380;7.018;2023-04-30T09:06:29;19.20;58.60
39099;DHT22;24844;52.380;7.018;2023-04-30T09:08:56;21.20;58.60
39099;DHT22;24844;52.380;7.018;2023-04-30T09:11:26;22.50;55.50
39099;DHT22;24844;52.380;7.018;2023-04-30T09:13:54;21.60;55.20
39099;DHT22;24844;52.380;7.018;2023-04-30T09:16:22;23.60;53.50
39099;DHT22;24844;52.380;7.018;2023-04-30T09:18:48;21.30;53.80
39099;DHT22;24844;52.380;7.018;2023-04-30T09:21:14;21.80;54.20
39099;DHT22;24844;52.380;7.018;2023-04-30T09:24:03;23.20;51.20
39099;DHT22;24844;52.380;7.018;2023-04-30T09:26:36;23.40;52.20
39099;DHT22;24844;52.380;7.018;2023-04-30T09:29:03;23.90;50.40
39099;DHT22;24844;52.380;7.018;2023-04-30T09:31:36;24.00;49.30
39099;DHT22;24844;52.380;7.018;2023-04-30T09:34:03;25.20;48.50
39099;DHT22;24844;52.380;7.018;2023-04-30T09:36:29;24.60;47.10
39099;DHT22;24844;52.380;7.018;2023-04-30T09:38:56;23.40;50.40
39099;DHT22;24844;52.380;7.018;2023-04-30T09:41:30;23.90;49.00
39099;DHT22;24844;52.380;7.018;2023-04-30T09:43:56;23.50;49.50
39099;DHT22;24844;52.380;7.018;2023-04-30T09:46:29;24.50;48.50
39099;DHT22;24844;52.380;7.018;2023-04-30T09:49:00;25.80;47.00
39099;DHT22;24844;52.380;7.018;2023-04-30T09:51:26;26.10;45.00
39099;DHT22;24844;52.380;7.018;2023-04-30T09:53:53;25.50;47.50
39099;DHT22;24844;52.380;7.018;2023-04-30T09:56:28;26.20;45.30
39099;DHT22;24844;52.380;7.018;2023-04-30T09:58:55;26.20;45.40
39099;DHT22;24844;52.380;7.018;2023-04-30T10:01:24;27.10;46.90
39099;DHT22;24844;52.380;7.018;2023-04-30T10:03:51;28.40;52.90
39099;DHT22;24844;52.380;7.018;2023-04-30T10:06:20;28.00;52.10
39099;DHT22;24844;52.380;7.018;2023-04-30T10:08:55;27.90;50.20
39099;DHT22;24844;52.380;7.018;2023-04-30T10:11:25;27.80;52.60
39099;DHT22;24844;52.380;7.018;2023-04-30T10:14:00;27.90;51.70
39099;DHT22;24844;52.380;7.018;2023-04-30T10:19:02;28.70;50.40
39099;DHT22;24844;52.380;7.018;2023-04-30T10:21:31;28.50;50.70
39099;DHT22;24844;52.380;7.018;2023-04-30T10:23:57;28.90;50.10
39099;DHT22;24844;52.380;7.018;2023-04-30T10:26:23;29.20;48.70
39099;DHT22;24844;52.380;7.018;2023-04-30T10:28:49;29.10;48.80
39099;DHT22;24844;52.380;7.018;2023-04-30T10:31:16;28.80;47.80
39099;DHT22;24844;52.380;7.018;2023-04-30T10:34:10;25.20;51.20
39099;DHT22;24844;52.380;7.018;2023-04-30T10:36:50;27.10;50.00
39099;DHT22;24844;52.380;7.018;2023-04-30T10:39:22;27.50;50.30
39099;DHT22;24844;52.380;7.018;2023-04-30T10:41:48;27.30;49.70
39099;DHT22;24844;52.380;7.018;2023-04-30T10:44:16;27.20;49.40
39099;DHT22;24844;52.380;7.018;2023-04-30T10:46:45;26.80;50.50
39099;DHT22;24844;52.380;7.018;2023-04-30T10:49:11;26.20;51.60
39099;DHT22;24844;52.380;7.018;2023-04-30T10:51:49;24.20;52.00
39099;DHT22;24844;52.380;7.018;2023-04-30T10:54:27;25.00;53.00
39099;DHT22;24844;52.380;7.018;2023-04-30T10:57:07;26.30;49.90
39099;DHT22;24844;52.380;7.018;2023-04-30T10:59:34;25.70;52.30
39099;DHT22;24844;52.380;7.018;2023-04-30T11:02:01;27.00;50.90
39099;DHT22;24844;52.380;7.018;2023-04-30T11:04:27;25.40;50.70
39099;DHT22;24844;52.380;7.018;2023-04-30T11:06:54;22.90;56.40
39099;DHT22;24844;52.380;7.018;2023-04-30T11:09:34;22.40;57.40
39099;DHT22;24844;52.380;7.018;2023-04-30T11:12:09;21.10;58.90
39099;DHT22;24844;52.380;7.018;2023-04-30T11:14:42;20.90;60.60
39099;DHT22;24844;52.380;7.018;2023-04-30T11:17:13;19.60;62.90
39099;DHT22;24844;52.380;7.018;2023-04-30T11:19:50;20.00;61.70
39099;DHT22;24844;52.380;7.018;2023-04-30T11:22:21;19.50;62.90
39099;DHT22;24844;52.380;7.018;2023-04-30T11:25:03;19.10;64.30
39099;DHT22;24844;52.380;7.018;2023-04-30T11:27:34;19.50;64.30
39099;DHT22;24844;52.380;7.018;2023-04-30T11:30:02;19.40;63.50
39099;DHT22;24844;52.380;7.018;2023-04-30T11:32:34;19.20;64.30
39099;DHT22;24844;52.380;7.018;2023-04-30T11:35:04;18.90;64.60
39099;DHT22;24844;52.380;7.018;2023-04-30T11:40:07;17.60;68.20
39099;DHT22;24844;52.380;7.018;2023-04-30T11:42:36;18.10;68.30
39099;DHT22;24844;52.380;7.018;2023-04-30T11:45:07;17.60;68.40
39099;DHT22;24844;52.380;7.018;2023-04-30T11:47:43;17.50;69.50
39099;DHT22;24844;52.380;7.018;2023-04-30T11:50:11;17.90;68.30
39099;DHT22;24844;52.380;7.018;2023-04-30T11:52:38;17.60;68.90
39099;DHT22;24844;52.380;7.018;2023-04-30T11:55:05;17.50;69.00
39099;DHT22;24844;52.380;7.018;2023-04-30T11:57:42;16.80;70.90
39099;DHT22;24844;52.380;7.018;2023-04-30T12:00:16;17.10;70.90
39099;DHT22;24844;52.380;7.018;2023-04-30T12:02:44;17.40;70.20
39099;DHT22;24844;52.380;7.018;2023-04-30T12:05:15;17.10;71.40
39099;DHT22;24844;52.380;7.018;2023-04-30T12:08:03;17.50;70.30
39099;DHT22;24844;52.380;7.018;2023-04-30T12:10:31;17.60;70.90
39099;DHT22;24844;52.380;7.018;2023-04-30T12:12:57;17.20;71.40
39099;DHT22;24844;52.380;7.018;2023-04-30T12:15:24;17.30;71.90
39099;DHT22;24844;52.380;7.018;2023-04-30T12:17:55;17.20;71.70
39099;DHT22;24844;52.380;7.018;2023-04-30T12:20:23;17.70;70.60
39099;DHT22;24844;52.380;7.018;2023-04-30T12:22:49;18.10;69.30
39099;DHT22;24844;52.380;7.018;2023-04-30T12:25:16;17.10;70.50
39099;DHT22;24844;52.380;7.018;2023-04-30T12:27:50;16.70;72.40
39099;DHT22;24844;52.380;7.018;2023-04-30T12:30:22;16.90;72.60
39099;DHT22;24844;52.380;7.018;2023-04-30T12:32:49;17.10;73.20
39099;DHT22;24844;52.380;7.018;2023-04-30T12:35:19;17.10;73.10
39099;DHT22;24844;52.380;7.018;2023-04-30T12:37:47;17.70;71.50
39099;DHT22;24844;52.380;7.018;2023-04-30T12:40:14;17.70;71.10
39099;DHT22;24844;52.380;7.018;2023-04-30T12:42:41;17.30;71.60
39099;DHT22;24844;52.380;7.018;2023-04-30T12:45:08;16.80;72.10
39099;DHT22;24844;52.380;7.018;2023-04-30T12:47:40;17.00;72.90
39099;DHT22;24844;52.380;7.018;2023-04-30T12:50:10;17.80;72.60
39099;DHT22;24844;52.380;7.018;2023-04-30T12:52:37;17.40;71.40
39099;DHT22;24844;52.380;7.018;2023-04-30T12:55:15;17.20;71.80
39099;DHT22;24844;52.380;7.018;2023-04-30T12:57:41;17.30;73.20
39099;DHT22;24844;52.380;7.018;2023-04-30T13:00:06;17.70;71.70
39099;DHT22;24844;52.380;7.018;2023-04-30T13:02:33;18.00;72.10
39099;DHT22;24844;52.380;7.018;2023-04-30T13:04:58;18.30;70.40
39099;DHT22;24844;52.380;7.018;2023-04-30T13:07:24;17.80;70.90
39099;DHT22;24844;52.380;7.018;2023-04-30T13:09:50;17.80;72.70
39099;DHT22;24844;52.380;7.018;2023-04-30T13:12:16;18.30;71.50
39099;DHT22;24844;52.380;7.018;2023-04-30T13:14:41;18.30;71.40
39099;DHT22;24844;52.380;7.018;2023-04-30T13:17:07;17.60;72.20
39099;DHT22;24844;52.380;7.018;2023-04-30T13:19:34;17.50;72.70
39099;DHT22;24844;52.380;7.018;2023-04-30T13:22:00;18.00;72.40
39099;DHT22;24844;52.380;7.018;2023-04-30T13:24:26;18.40;71.10
39099;DHT22;24844;52.380;7.018;2023-04-30T13:26:52;18.50;71.40
39099;DHT22;24844;52.380;7.018;2023-04-30T13:29:17;18.30;70.80
39099;DHT22;24844;52.380;7.018;2023-04-30T13:31:45;18.30;71.50
39099;DHT22;24844;52.380;7.018;2023-04-30T13:34:16;18.90;70.10
39099;DHT22;24844;52.380;7.018;2023-04-30T13:36:41;18.60;70.50
39099;DHT22;24844;52.380;7.018;2023-04-30T13:39:07;18.30;70.50
39099;DHT22;24844;52.380;7.018;2023-04-30T13:41:32;18.90;69.70
39099;DHT22;24844;52.380;7.018;2023-04-30T13:43:58;19.10;69.00
39099;DHT22;24844;52.380;7.018;2023-04-30T13:46:24;18.90;68.80
39099;DHT22;24844;52.380;7.018;2023-04-30T13:48:50;19.10;68.50
39099;DHT22;24844;52.380;7.018;2023-04-30T13:51:18;19.00;69.50
39099;DHT22;24844;52.380;7.018;2023-04-30T13:53:43;19.70;68.00
39099;DHT22;24844;52.380;7.018;2023-04-30T13:56:09;19.60;68.50
39099;DHT22;24844;52.380;7.018;2023-04-30T13:58:34;19.60;67.80
39099;DHT22;24844;52.380;7.018;2023-04-30T14:01:00;19.30;68.30
39099;DHT22;24844;52.380;7.018;2023-04-30T14:03:26;19.40;69.10
39099;DHT22;24844;52.380;7.018;2023-04-30T14:05:53;18.80;69.10
39099;DHT22;24844;52.380;7.018;2023-04-30T14:08:18;18.30;70.40
39099;DHT22;24844;52.380;7.018;2023-04-30T14:10:44;17.80;71.70
39099;DHT22;24844;52.380;7.018;2023-04-30T14:13:10;17.40;72.30
39099;DHT22;24844;52.380;7.018;2023-04-30T14:15:35;17.40;73.40
39099;DHT22;24844;52.380;7.018;2023-04-30T14:18:02;18.00;71.80
39099;DHT22;24844;52.380;7.018;2023-04-30T14:20:28;18.60;70.50
39099;DHT22;24844;52.380;7.018;2023-04-30T14:22:54;18.50;70.50
39099;DHT22;24844;52.380;7.018;2023-04-30T14:25:19;17.80;72.10
39099;DHT22;24844;52.380;7.018;2023-04-30T14:27:45;17.80;71.70
39099;DHT22;24844;52.380;7.018;2023-04-30T14:30:11;18.10;71.70
39099;DHT22;24844;52.380;7.018;2023-04-30T14:32:37;18.50;71.40
39099;DHT22;24844;52.380;7.018;2023-04-30T14:35:03;18.90;70.30
39099;DHT22;24844;52.380;7.018;2023-04-30T14:37:29;17.90;70.30
39099;DHT22;24844;52.380;7.018;2023-04-30T14:39:55;17.90;71.30
39099;DHT22;24844;52.380;7.018;2023-04-30T14:42:20;18.20;71.20
39099;DHT22;24844;52.380;7.018;2023-04-30T14:44:46;18.00;69.40
39099;DHT22;24844;52.380;7.018;2023-04-30T14:47:12;17.60;72.10
39099;DHT22;24844;52.380;7.018;2023-04-30T14:49:37;17.70;72.90
39099;DHT22;24844;52.380;7.018;2023-04-30T14:52:03;17.60;72.20
39099;DHT22;24844;52.380;7.018;2023-04-30T14:54:29;17.40;72.70
39099;DHT22;24844;52.380;7.018;2023-04-30T14:56:54;17.60;72.50
39099;DHT22;24844;52.380;7.018;2023-04-30T14:59:20;17.70;72.40
39099;DHT22;24844;52.380;7.018;2023-04-30T15:01:46;18.30;71.20
39099;DHT22;24844;52.380;7.018;2023-04-30T15:04:11;17.80;71.40
39099;DHT22;24844;52.380;7.018;2023-04-30T15:06:37;17.70;73.30
39099;DHT22;24844;52.380;7.018;2023-04-30T15:09:02;18.20;71.60
39099;DHT22;24844;52.380;7.018;2023-04-30T15:11:28;18.50;70.40
39099;DHT22;24844;52.380;7.018;2023-04-30T15:13:54;18.20;70.70
39099;DHT22;24844;52.380;7.018;2023-04-30T15:16:20;18.90;69.20
39099;DHT22;24844;52.380;7.018;2023-04-30T15:18:45;19.10;68.30
39099;DHT22;24844;52.380;7.018;2023-04-30T15:21:11;19.00;68.60
39099;DHT22;24844;52.380;7.018;2023-04-30T15:23:37;18.50;68.10
39099;DHT22;24844;52.380;7.018;2023-04-30T15:26:03;18.20;69.40
39099;DHT22;24844;52.380;7.018;2023-04-30T15:28:30;18.70;68.60
39099;DHT22;24844;52.380;7.018;2023-04-30T15:30:57;18.70;69.20
39099;DHT22;24844;52.380;7.018;2023-04-30T15:33:22;18.60;69.20
39099;DHT22;24844;52.380;7.018;2023-04-30T15:35:53;19.00;69.40
39099;DHT22;24844;52.380;7.018;2023-04-30T15:38:19;18.60;69.60
39099;DHT22;24844;52.380;7.018;2023-04-30T15:40:45;18.30;70.30
39099;DHT22;24844;52.380;7.018;2023-04-30T15:43:10;18.00;70.10
39099;DHT22;24844;52.380;7.018;2023-04-30T15:45:36;17.70;71.10
39099;DHT22;24844;52.380;7.018;2023-04-30T15:48:02;18.00;71.40
39099;DHT22;24844;52.380;7.018;2023-04-30T15:50:29;18.60;70.10
39099;DHT22;24844;52.380;7.018;2023-04-30T15:52:55;18.90;69.90
39099;DHT22;24844;52.380;7.018;2023-04-30T15:55:21;18.90;69.40
39099;DHT22;24844;52.380;7.018;2023-04-30T15:57:47;18.60;69.60